sensor_id;sensor_type;location;lat;lon;timestamp;P1;durP1;ratioP1;P2;durP2;ratioP2
11078;SDS011;5592;49.234;7.268;2023-12-14T00:01:14;14.50;;;8.93;;
11078;SDS011;5592;49.234;7.268;2023-12-14T00:03:40;12.23;;;8.90;;
11078;SDS011;5592;49.234;7.268;2023-12-14T00:06:09;17.13;;;10.47;;
11078;SDS011;5592;49.234;7.268;2023-12-14T00:08:38;14.60;;;9.30;;
11078;SDS011;5592;49.234;7.268;2023-12-14T00:11:07;23.13;;;9.53;;
11078;SDS011;5592;49.234;7.268;2023-12-14T00:13:33;19.40;;;10.27;;
11078;SDS011;5592;49.234;7.268;2023-12-14T00:15:59;14.47;;;10.20;;
11078;SDS011;5592;49.234;7.268;2023-12-14T00:18:25;12.20;;;8.37;;
11078;SDS011;5592;49.234;7.268;2023-12-14T00:20:51;11.00;;;8.30;;
11078;SDS011;5592;49.234;7.268;2023-12-14T00:23:17;15.97;;;9.13;;
11078;SDS011;5592;49.234;7.268;2023-12-14T00:25:43;16.03;;;9.60;;
11078;SDS011;5592;49.234;7.268;2023-12-14T00:28:11;14.53;;;8.63;;
11078;SDS011;5592;49.234;7.268;2023-12-14T00:30:37;12.17;;;8.40;;
11078;SDS011;5592;49.234;7.268;2023-12-14T00:33:03;13.07;;;8.73;;
11078;SDS011;5592;49.234;7.268;2023-12-14T00:35:30;11.83;;;8.00;;
11078;SDS011;5592;49.234;7.268;2023-12-14T00:37:55;13.57;;;7.97;;
11078;SDS011;5592;49.234;7.268;2023-12-14T00:40:21;16.80;;;9.13;;
11078;SDS011;5592;49.234;7.268;2023-12-14T00:42:46;20.63;;;9.17;;
11078;SDS011;5592;49.234;7.268;2023-12-14T00:45:12;14.40;;;7.57;;
11078;SDS011;5592;49.234;7.268;2023-12-14T00:47:38;12.63;;;8.83;;
11078;SDS011;5592;49.234;7.268;2023-12-14T00:50:03;14.50;;;10.40;;
11078;SDS011;5592;49.234;7.268;2023-12-14T00:52:29;9.80;;;8.07;;
11078;SDS011;5592;49.234;7.268;2023-12-14T00:54:55;10.97;;;8.50;;
11078;SDS011;5592;49.234;7.268;2023-12-14T00:57:20;13.10;;;9.20;;
11078;SDS011;5592;49.234;7.268;2023-12-14T00:59:46;12.77;;;9.40;;
11078;SDS011;5592;49.234;7.268;2023-12-14T01:02:11;13.10;;;9.40;;
11078;SDS011;5592;49.234;7.268;2023-12-14T01:04:37;10.50;;;8.57;;
11078;SDS011;5592;49.234;7.268;2023-12-14T01:07:03;16.50;;;9.00;;
11078;SDS011;5592;49.234;7.268;2023-12-14T01:09:29;17.53;;;8.87;;
11078;SDS011;5592;49.234;7.268;2023-12-14T01:11:54;15.60;;;9.87;;
11078;SDS011;5592;49.234;7.268;2023-12-14T01:14:20;13.70;;;9.00;;
11078;SDS011;5592;49.234;7.268;2023-12-14T01:16:45;14.50;;;9.20;;
11078;SDS011;5592;49.234;7.268;2023-12-14T01:19:11;13.73;;;9.63;;
11078;SDS011;5592;49.234;7.268;2023-12-14T01:21:37;12.90;;;9.17;;
11078;SDS011;5592;49.234;7.268;2023-12-14T01:24:02;16.70;;;9.70;;
11078;SDS011;5592;49.234;7.268;2023-12-14T01:26:28;15.90;;;10.30;;
11078;SDS011;5592;49.234;7.268;2023-12-14T01:28:53;16.77;;;9.00;;
11078;SDS011;5592;49.234;7.268;2023-12-14T01:31:19;13.20;;;9.03;;
11078;SDS011;5592;49.234;7.268;2023-12-14T01:33:48;9.80;;;8.40;;
11078;SDS011;5592;49.234;7.268;2023-12-14T01:36:19;14.07;;;9.03;;
11078;SDS011;5592;49.234;7.268;2023-12-14T01:38:48;17.03;;;9.40;;
11078;SDS011;5592;49.234;7.268;2023-12-14T01:41:14;21.93;;;9.77;;
11078;SDS011;5592;49.234;7.268;2023-12-14T01:43:40;12.13;;;8.70;;
11078;SDS011;5592;49.234;7.268;2023-12-14T01:46:05;15.37;;;9.43;;
11078;SDS011;5592;49.234;7.268;2023-12-14T01:48:31;12.77;;;9.57;;
11078;SDS011;5592;49.234;7.268;2023-12-14T01:50:57;14.30;;;9.03;;
11078;SDS011;5592;49.234;7.268;2023-12-14T01:53:22;20.27;;;10.30;;
11078;SDS011;5592;49.234;7.268;2023-12-14T01:55:48;20.03;;;10.10;;
11078;SDS011;5592;49.234;7.268;2023-12-14T01:58:13;15.20;;;9.03;;
11078;SDS011;5592;49.234;7.268;2023-12-14T02:00:40;16.50;;;8.90;;
11078;SDS011;5592;49.234;7.268;2023-12-14T02:03:13;19.30;;;9.90;;
11078;SDS011;5592;49.234;7.268;2023-12-14T02:05:39;15.60;;;9.93;;
11078;SDS011;5592;49.234;7.268;2023-12-14T02:08:05;12.90;;;9.40;;
11078;SDS011;5592;49.234;7.268;2023-12-14T02:10:30;15.50;;;10.13;;
11078;SDS011;5592;49.234;7.268;2023-12-14T02:12:56;25.63;;;9.50;;
11078;SDS011;5592;49.234;7.268;2023-12-14T02:15:21;12.20;;;8.90;;
11078;SDS011;5592;49.234;7.268;2023-12-14T02:17:47;16.40;;;9.83;;
11078;SDS011;5592;49.234;7.268;2023-12-14T02:20:12;11.00;;;7.83;;
11078;SDS011;5592;49.234;7.268;2023-12-14T02:22:53;14.40;;;8.20;;
11078;SDS011;5592;49.234;7.268;2023-12-14T02:25:20;16.77;;;9.30;;
11078;SDS011;5592;49.234;7.268;2023-12-14T02:27:47;12.83;;;8.80;;
11078;SDS011;5592;49.234;7.268;2023-12-14T02:30:13;15.50;;;8.93;;
11078;SDS011;5592;49.234;7.268;2023-12-14T02:32:39;12.00;;;8.60;;
11078;SDS011;5592;49.234;7.268;2023-12-14T02:35:05;14.07;;;8.93;;
11078;SDS011;5592;49.234;7.268;2023-12-14T02:37:31;17.97;;;7.70;;
11078;SDS011;5592;49.234;7.268;2023-12-14T02:39:58;10.90;;;7.37;;
11078;SDS011;5592;49.234;7.268;2023-12-14T02:42:24;12.40;;;7.93;;
11078;SDS011;5592;49.234;7.268;2023-12-14T02:44:50;10.40;;;7.43;;
11078;SDS011;5592;49.234;7.268;2023-12-14T02:47:16;13.03;;;8.30;;
11078;SDS011;5592;49.234;7.268;2023-12-14T02:49:42;10.97;;;7.33;;
11078;SDS011;5592;49.234;7.268;2023-12-14T02:52:09;11.60;;;7.30;;
11078;SDS011;5592;49.234;7.268;2023-12-14T02:54:34;14.53;;;7.90;;
11078;SDS011;5592;49.234;7.268;2023-12-14T02:57:01;10.00;;;7.57;;
11078;SDS011;5592;49.234;7.268;2023-12-14T02:59:26;12.53;;;6.97;;
11078;SDS011;5592;49.234;7.268;2023-12-14T03:01:52;9.67;;;7.57;;
11078;SDS011;5592;49.234;7.268;2023-12-14T03:04:17;13.53;;;6.80;;
11078;SDS011;5592;49.234;7.268;2023-12-14T03:06:43;17.60;;;7.67;;
11078;SDS011;5592;49.234;7.268;2023-12-14T03:09:08;9.40;;;6.50;;
11078;SDS011;5592;49.234;7.268;2023-12-14T03:11:34;9.90;;;6.97;;
11078;SDS011;5592;49.234;7.268;2023-12-14T03:13:59;10.93;;;7.07;;
11078;SDS011;5592;49.234;7.268;2023-12-14T03:16:25;10.87;;;7.10;;
11078;SDS011;5592;49.234;7.268;2023-12-14T03:18:50;12.20;;;7.50;;
11078;SDS011;5592;49.234;7.268;2023-12-14T03:21:18;10.00;;;6.30;;
11078;SDS011;5592;49.234;7.268;2023-12-14T03:23:44;11.63;;;7.80;;
11078;SDS011;5592;49.234;7.268;2023-12-14T03:26:10;11.93;;;7.33;;
11078;SDS011;5592;49.234;7.268;2023-12-14T03:28:35;15.37;;;8.50;;
11078;SDS011;5592;49.234;7.268;2023-12-14T03:31:01;11.97;;;8.90;;
11078;SDS011;5592;49.234;7.268;2023-12-14T03:33:27;15.37;;;8.00;;
11078;SDS011;5592;49.234;7.268;2023-12-14T03:35:52;8.67;;;7.20;;
11078;SDS011;5592;49.234;7.268;2023-12-14T03:38:18;13.83;;;7.90;;
11078;SDS011;5592;49.234;7.268;2023-12-14T03:40:43;12.10;;;7.83;;
11078;SDS011;5592;49.234;7.268;2023-12-14T03:43:09;10.10;;;7.43;;
11078;SDS011;5592;49.234;7.268;2023-12-14T03:45:35;10.27;;;7.73;;
11078;SDS011;5592;49.234;7.268;2023-12-14T03:48:00;13.83;;;7.60;;
11078;SDS011;5592;49.234;7.268;2023-12-14T03:50:26;14.70;;;7.30;;
11078;SDS011;5592;49.234;7.268;2023-12-14T03:52:53;13.63;;;7.70;;
11078;SDS011;5592;49.234;7.268;2023-12-14T03:55:18;10.30;;;6.77;;
11078;SDS011;5592;49.234;7.268;2023-12-14T03:57:44;14.30;;;8.17;;
11078;SDS011;5592;49.234;7.268;2023-12-14T04:00:10;13.00;;;7.67;;
11078;SDS011;5592;49.234;7.268;2023-12-14T04:02:36;14.40;;;8.47;;
11078;SDS011;5592;49.234;7.268;2023-12-14T04:05:02;9.63;;;6.90;;
11078;SDS011;5592;49.234;7.268;2023-12-14T04:07:27;14.40;;;7.50;;
11078;SDS011;5592;49.234;7.268;2023-12-14T04:09:53;13.20;;;7.10;;
11078;SDS011;5592;49.234;7.268;2023-12-14T04:12:18;10.03;;;7.07;;
11078;SDS011;5592;49.234;7.268;2023-12-14T04:14:44;11.50;;;7.17;;
11078;SDS011;5592;49.234;7.268;2023-12-14T04:17:11;15.87;;;7.77;;
11078;SDS011;5592;49.234;7.268;2023-12-14T04:19:39;10.37;;;6.80;;
11078;SDS011;5592;49.234;7.268;2023-12-14T04:22:05;10.17;;;6.80;;
11078;SDS011;5592;49.234;7.268;2023-12-14T04:24:31;9.97;;;7.70;;
11078;SDS011;5592;49.234;7.268;2023-12-14T04:26:57;12.10;;;7.80;;
11078;SDS011;5592;49.234;7.268;2023-12-14T04:29:23;12.80;;;7.80;;
11078;SDS011;5592;49.234;7.268;2023-12-14T04:31:48;13.23;;;8.13;;
11078;SDS011;5592;49.234;7.268;2023-12-14T04:34:14;14.83;;;9.00;;
11078;SDS011;5592;49.234;7.268;2023-12-14T04:36:44;11.60;;;8.23;;
11078;SDS011;5592;49.234;7.268;2023-12-14T04:39:10;11.10;;;7.70;;
11078;SDS011;5592;49.234;7.268;2023-12-14T04:41:36;11.63;;;7.57;;
11078;SDS011;5592;49.234;7.268;2023-12-14T04:44:02;11.00;;;7.30;;
11078;SDS011;5592;49.234;7.268;2023-12-14T04:46:28;10.93;;;7.00;;
11078;SDS011;5592;49.234;7.268;2023-12-14T04:48:54;12.10;;;7.67;;
11078;SDS011;5592;49.234;7.268;2023-12-14T04:51:20;13.87;;;7.90;;
11078;SDS011;5592;49.234;7.268;2023-12-14T04:53:46;12.37;;;7.93;;
11078;SDS011;5592;49.234;7.268;2023-12-14T04:56:11;14.53;;;8.07;;
11078;SDS011;5592;49.234;7.268;2023-12-14T04:58:41;10.57;;;6.63;;
11078;SDS011;5592;49.234;7.268;2023-12-14T05:01:07;13.73;;;7.60;;
11078;SDS011;5592;49.234;7.268;2023-12-14T05:03:33;13.90;;;8.40;;
11078;SDS011;5592;49.234;7.268;2023-12-14T05:05:59;12.93;;;7.20;;
11078;SDS011;5592;49.234;7.268;2023-12-14T05:08:25;86.43;;;9.50;;
11078;SDS011;5592;49.234;7.268;2023-12-14T05:10:50;16.50;;;8.90;;
11078;SDS011;5592;49.234;7.268;2023-12-14T05:13:16;21.20;;;10.93;;
11078;SDS011;5592;49.234;7.268;2023-12-14T05:15:41;25.43;;;12.70;;
11078;SDS011;5592;49.234;7.268;2023-12-14T05:18:07;25.93;;;11.93;;
11078;SDS011;5592;49.234;7.268;2023-12-14T05:20:33;17.43;;;11.33;;
11078;SDS011;5592;49.234;7.268;2023-12-14T05:22:59;15.90;;;9.33;;
11078;SDS011;5592;49.234;7.268;2023-12-14T05:25:25;23.27;;;9.83;;
11078;SDS011;5592;49.234;7.268;2023-12-14T05:27:50;44.60;;;8.57;;
11078;SDS011;5592;49.234;7.268;2023-12-14T05:30:16;43.40;;;7.23;;
11078;SDS011;5592;49.234;7.268;2023-12-14T05:32:42;10.40;;;6.20;;
11078;SDS011;5592;49.234;7.268;2023-12-14T05:35:08;12.40;;;6.60;;
11078;SDS011;5592;49.234;7.268;2023-12-14T05:37:34;13.60;;;8.73;;
11078;SDS011;5592;49.234;7.268;2023-12-14T05:40:00;16.80;;;8.23;;
11078;SDS011;5592;49.234;7.268;2023-12-14T05:42:26;15.90;;;8.83;;
11078;SDS011;5592;49.234;7.268;2023-12-14T05:44:52;17.10;;;9.80;;
11078;SDS011;5592;49.234;7.268;2023-12-14T05:47:18;15.77;;;9.40;;
11078;SDS011;5592;49.234;7.268;2023-12-14T05:49:43;13.00;;;8.50;;
11078;SDS011;5592;49.234;7.268;2023-12-14T05:52:10;13.13;;;8.00;;
11078;SDS011;5592;49.234;7.268;2023-12-14T05:54:36;11.40;;;7.60;;
11078;SDS011;5592;49.234;7.268;2023-12-14T05:57:02;17.60;;;8.80;;
11078;SDS011;5592;49.234;7.268;2023-12-14T05:59:28;38.33;;;10.30;;
11078;SDS011;5592;49.234;7.268;2023-12-14T06:01:57;18.97;;;9.83;;
11078;SDS011;5592;49.234;7.268;2023-12-14T06:04:25;18.23;;;9.63;;
11078;SDS011;5592;49.234;7.268;2023-12-14T06:06:51;22.23;;;8.77;;
11078;SDS011;5592;49.234;7.268;2023-12-14T06:09:17;13.70;;;7.00;;
11078;SDS011;5592;49.234;7.268;2023-12-14T06:11:46;13.53;;;7.97;;
11078;SDS011;5592;49.234;7.268;2023-12-14T06:14:12;15.30;;;8.63;;
11078;SDS011;5592;49.234;7.268;2023-12-14T06:16:37;13.20;;;8.10;;
11078;SDS011;5592;49.234;7.268;2023-12-14T06:19:03;22.80;;;8.97;;
11078;SDS011;5592;49.234;7.268;2023-12-14T06:21:28;11.47;;;8.40;;
11078;SDS011;5592;49.234;7.268;2023-12-14T06:23:55;12.93;;;7.97;;
11078;SDS011;5592;49.234;7.268;2023-12-14T06:26:22;17.27;;;9.47;;
11078;SDS011;5592;49.234;7.268;2023-12-14T06:28:47;14.03;;;7.60;;
11078;SDS011;5592;49.234;7.268;2023-12-14T06:31:14;17.23;;;10.87;;
11078;SDS011;5592;49.234;7.268;2023-12-14T06:33:40;19.27;;;10.30;;
11078;SDS011;5592;49.234;7.268;2023-12-14T06:36:09;24.23;;;11.33;;
11078;SDS011;5592;49.234;7.268;2023-12-14T06:38:38;18.63;;;10.47;;
11078;SDS011;5592;49.234;7.268;2023-12-14T06:41:04;17.60;;;9.07;;
11078;SDS011;5592;49.234;7.268;2023-12-14T06:43:30;17.33;;;9.90;;
11078;SDS011;5592;49.234;7.268;2023-12-14T06:45:55;18.17;;;9.47;;
11078;SDS011;5592;49.234;7.268;2023-12-14T06:48:21;14.57;;;8.30;;
11078;SDS011;5592;49.234;7.268;2023-12-14T06:50:47;12.40;;;7.33;;
11078;SDS011;5592;49.234;7.268;2023-12-14T06:53:12;14.10;;;7.63;;
11078;SDS011;5592;49.234;7.268;2023-12-14T06:55:40;17.63;;;9.63;;
11078;SDS011;5592;49.234;7.268;2023-12-14T06:58:06;19.23;;;10.00;;
11078;SDS011;5592;49.234;7.268;2023-12-14T07:00:36;14.87;;;8.37;;
11078;SDS011;5592;49.234;7.268;2023-12-14T07:03:02;12.47;;;8.30;;
11078;SDS011;5592;49.234;7.268;2023-12-14T07:05:29;17.10;;;10.23;;
11078;SDS011;5592;49.234;7.268;2023-12-14T07:07:57;18.40;;;11.17;;
11078;SDS011;5592;49.234;7.268;2023-12-14T07:10:22;24.03;;;12.63;;
11078;SDS011;5592;49.234;7.268;2023-12-14T07:12:48;23.10;;;12.10;;
11078;SDS011;5592;49.234;7.268;2023-12-14T07:15:13;22.67;;;12.60;;
11078;SDS011;5592;49.234;7.268;2023-12-14T07:17:39;24.03;;;12.27;;
11078;SDS011;5592;49.234;7.268;2023-12-14T07:20:05;21.67;;;11.13;;
11078;SDS011;5592;49.234;7.268;2023-12-14T07:22:31;24.10;;;12.60;;
11078;SDS011;5592;49.234;7.268;2023-12-14T07:24:57;19.13;;;10.27;;
11078;SDS011;5592;49.234;7.268;2023-12-14T07:27:27;20.50;;;9.20;;
11078;SDS011;5592;49.234;7.268;2023-12-14T07:30:00;18.50;;;10.53;;
11078;SDS011;5592;49.234;7.268;2023-12-14T07:32:25;19.57;;;11.80;;
11078;SDS011;5592;49.234;7.268;2023-12-14T07:34:52;16.20;;;8.90;;
11078;SDS011;5592;49.234;7.268;2023-12-14T07:37:21;19.90;;;11.27;;
11078;SDS011;5592;49.234;7.268;2023-12-14T07:39:47;15.97;;;9.33;;
11078;SDS011;5592;49.234;7.268;2023-12-14T07:42:12;16.77;;;10.80;;
11078;SDS011;5592;49.234;7.268;2023-12-14T07:44:44;20.60;;;10.43;;
11078;SDS011;5592;49.234;7.268;2023-12-14T07:47:11;15.53;;;9.53;;
11078;SDS011;5592;49.234;7.268;2023-12-14T07:49:38;17.57;;;10.80;;
11078;SDS011;5592;49.234;7.268;2023-12-14T07:52:04;21.70;;;10.70;;
11078;SDS011;5592;49.234;7.268;2023-12-14T07:54:30;18.73;;;10.37;;
11078;SDS011;5592;49.234;7.268;2023-12-14T07:56:55;18.63;;;10.83;;
11078;SDS011;5592;49.234;7.268;2023-12-14T07:59:21;14.00;;;8.43;;
11078;SDS011;5592;49.234;7.268;2023-12-14T08:01:46;17.10;;;9.93;;
11078;SDS011;5592;49.234;7.268;2023-12-14T08:04:12;14.57;;;9.23;;
11078;SDS011;5592;49.234;7.268;2023-12-14T08:06:38;17.87;;;9.50;;
11078;SDS011;5592;49.234;7.268;2023-12-14T08:09:04;20.43;;;11.40;;
11078;SDS011;5592;49.234;7.268;2023-12-14T08:11:34;18.03;;;11.27;;
11078;SDS011;5592;49.234;7.268;2023-12-14T08:14:00;19.10;;;11.10;;
11078;SDS011;5592;49.234;7.268;2023-12-14T08:16:29;26.00;;;12.77;;
11078;SDS011;5592;49.234;7.268;2023-12-14T08:18:55;25.00;;;12.97;;
11078;SDS011;5592;49.234;7.268;2023-12-14T08:21:21;25.73;;;13.30;;
11078;SDS011;5592;49.234;7.268;2023-12-14T08:23:48;25.70;;;11.97;;
11078;SDS011;5592;49.234;7.268;2023-12-14T08:28:48;23.60;;;12.33;;
11078;SDS011;5592;49.234;7.268;2023-12-14T08:31:14;18.90;;;11.27;;
11078;SDS011;5592;49.234;7.268;2023-12-14T08:33:41;17.57;;;10.63;;
11078;SDS011;5592;49.234;7.268;2023-12-14T08:36:14;20.03;;;11.30;;
11078;SDS011;5592;49.234;7.268;2023-12-14T08:39:04;25.70;;;13.30;;
11078;SDS011;5592;49.234;7.268;2023-12-14T08:41:30;24.57;;;13.97;;
11078;SDS011;5592;49.234;7.268;2023-12-14T08:43:55;24.53;;;13.60;;
11078;SDS011;5592;49.234;7.268;2023-12-14T08:46:21;23.23;;;14.77;;
11078;SDS011;5592;49.234;7.268;2023-12-14T08:48:47;30.33;;;14.30;;
11078;SDS011;5592;49.234;7.268;2023-12-14T08:51:14;26.13;;;13.60;;
11078;SDS011;5592;49.234;7.268;2023-12-14T08:53:41;23.30;;;13.53;;
11078;SDS011;5592;49.234;7.268;2023-12-14T08:56:08;18.80;;;11.70;;
11078;SDS011;5592;49.234;7.268;2023-12-14T08:58:35;21.77;;;12.53;;
11078;SDS011;5592;49.234;7.268;2023-12-14T09:01:02;21.90;;;12.80;;
11078;SDS011;5592;49.234;7.268;2023-12-14T09:03:27;22.30;;;12.47;;
11078;SDS011;5592;49.234;7.268;2023-12-14T09:05:54;19.73;;;11.93;;
11078;SDS011;5592;49.234;7.268;2023-12-14T09:08:23;21.13;;;13.47;;
11078;SDS011;5592;49.234;7.268;2023-12-14T09:10:49;22.67;;;12.07;;
11078;SDS011;5592;49.234;7.268;2023-12-14T09:13:14;33.27;;;11.50;;
11078;SDS011;5592;49.234;7.268;2023-12-14T09:15:40;22.77;;;13.00;;
11078;SDS011;5592;49.234;7.268;2023-12-14T09:18:08;18.73;;;12.37;;
11078;SDS011;5592;49.234;7.268;2023-12-14T09:20:34;19.17;;;11.80;;
11078;SDS011;5592;49.234;7.268;2023-12-14T09:23:02;20.87;;;11.63;;
11078;SDS011;5592;49.234;7.268;2023-12-14T09:25:28;19.43;;;10.60;;
11078;SDS011;5592;49.234;7.268;2023-12-14T09:27:59;14.60;;;9.50;;
11078;SDS011;5592;49.234;7.268;2023-12-14T09:30:28;14.50;;;10.07;;
11078;SDS011;5592;49.234;7.268;2023-12-14T09:33:16;15.23;;;9.07;;
11078;SDS011;5592;49.234;7.268;2023-12-14T09:38:40;16.20;;;9.83;;
11078;SDS011;5592;49.234;7.268;2023-12-14T09:41:07;13.70;;;9.00;;
11078;SDS011;5592;49.234;7.268;2023-12-14T09:43:35;12.83;;;8.57;;
11078;SDS011;5592;49.234;7.268;2023-12-14T09:46:10;15.07;;;9.67;;
11078;SDS011;5592;49.234;7.268;2023-12-14T09:48:40;11.97;;;8.43;;
11078;SDS011;5592;49.234;7.268;2023-12-14T09:51:07;19.10;;;8.87;;
11078;SDS011;5592;49.234;7.268;2023-12-14T09:53:46;12.03;;;8.87;;
11078;SDS011;5592;49.234;7.268;2023-12-14T09:56:13;17.77;;;9.50;;
11078;SDS011;5592;49.234;7.268;2023-12-14T09:58:42;15.40;;;9.23;;
11078;SDS011;5592;49.234;7.268;2023-12-14T10:01:23;14.77;;;8.50;;
11078;SDS011;5592;49.234;7.268;2023-12-14T10:03:50;12.53;;;8.60;;
11078;SDS011;5592;49.234;7.268;2023-12-14T10:06:37;13.27;;;9.10;;
11078;SDS011;5592;49.234;7.268;2023-12-14T10:09:07;14.77;;;8.43;;
11078;SDS011;5592;49.234;7.268;2023-12-14T10:11:44;14.50;;;9.20;;
11078;SDS011;5592;49.234;7.268;2023-12-14T10:14:17;13.63;;;8.53;;
11078;SDS011;5592;49.234;7.268;2023-12-14T10:16:45;13.93;;;8.37;;
11078;SDS011;5592;49.234;7.268;2023-12-14T10:19:12;13.27;;;8.53;;
11078;SDS011;5592;49.234;7.268;2023-12-14T10:21:39;11.73;;;8.10;;
11078;SDS011;5592;49.234;7.268;2023-12-14T10:24:06;18.70;;;9.30;;
11078;SDS011;5592;49.234;7.268;2023-12-14T10:26:33;15.60;;;10.40;;
11078;SDS011;5592;49.234;7.268;2023-12-14T10:28:59;19.07;;;9.43;;
11078;SDS011;5592;49.234;7.268;2023-12-14T10:31:25;14.37;;;8.57;;
11078;SDS011;5592;49.234;7.268;2023-12-14T10:34:02;15.17;;;9.80;;
11078;SDS011;5592;49.234;7.268;2023-12-14T10:36:37;13.07;;;9.67;;
11078;SDS011;5592;49.234;7.268;2023-12-14T10:39:03;12.83;;;9.33;;
11078;SDS011;5592;49.234;7.268;2023-12-14T10:41:32;13.10;;;8.33;;
11078;SDS011;5592;49.234;7.268;2023-12-14T10:46:35;12.67;;;8.80;;
11078;SDS011;5592;49.234;7.268;2023-12-14T10:49:09;19.37;;;8.90;;
11078;SDS011;5592;49.234;7.268;2023-12-14T10:52:01;11.10;;;8.03;;
11078;SDS011;5592;49.234;7.268;2023-12-14T10:57:09;10.60;;;6.77;;
11078;SDS011;5592;49.234;7.268;2023-12-14T10:59:35;12.60;;;7.90;;
11078;SDS011;5592;49.234;7.268;2023-12-14T11:02:06;12.27;;;7.90;;
11078;SDS011;5592;49.234;7.268;2023-12-14T11:07:53;8.53;;;6.97;;
11078;SDS011;5592;49.234;7.268;2023-12-14T11:10:27;9.47;;;6.20;;
11078;SDS011;5592;49.234;7.268;2023-12-14T11:13:05;12.47;;;6.93;;
11078;SDS011;5592;49.234;7.268;2023-12-14T11:15:36;9.80;;;7.33;;
11078;SDS011;5592;49.234;7.268;2023-12-14T11:23:10;7.80;;;5.50;;
11078;SDS011;5592;49.234;7.268;2023-12-14T11:25:41;8.27;;;6.10;;
11078;SDS011;5592;49.234;7.268;2023-12-14T11:28:07;9.97;;;6.33;;
11078;SDS011;5592;49.234;7.268;2023-12-14T11:30:36;11.53;;;6.63;;
11078;SDS011;5592;49.234;7.268;2023-12-14T11:33:03;11.50;;;7.00;;
11078;SDS011;5592;49.234;7.268;2023-12-14T11:35:29;8.50;;;5.83;;
11078;SDS011;5592;49.234;7.268;2023-12-14T11:37:57;10.17;;;6.37;;
11078;SDS011;5592;49.234;7.268;2023-12-14T11:40:27;8.60;;;6.03;;
11078;SDS011;5592;49.234;7.268;2023-12-14T11:45:25;7.03;;;5.20;;
11078;SDS011;5592;49.234;7.268;2023-12-14T11:47:57;9.30;;;5.60;;
11078;SDS011;5592;49.234;7.268;2023-12-14T11:50:34;7.23;;;5.57;;
11078;SDS011;5592;49.234;7.268;2023-12-14T11:53:04;10.20;;;5.40;;
11078;SDS011;5592;49.234;7.268;2023-12-14T11:55:51;7.63;;;5.60;;
11078;SDS011;5592;49.234;7.268;2023-12-14T11:58:19;7.03;;;5.07;;
11078;SDS011;5592;49.234;7.268;2023-12-14T12:00:44;11.50;;;6.40;;
11078;SDS011;5592;49.234;7.268;2023-12-14T12:03:12;7.30;;;5.20;;
11078;SDS011;5592;49.234;7.268;2023-12-14T12:05:43;9.57;;;4.80;;
11078;SDS011;5592;49.234;7.268;2023-12-14T12:08:11;6.63;;;4.67;;
11078;SDS011;5592;49.234;7.268;2023-12-14T12:10:41;10.20;;;4.60;;
11078;SDS011;5592;49.234;7.268;2023-12-14T12:13:12;5.77;;;4.40;;
11078;SDS011;5592;49.234;7.268;2023-12-14T12:15:44;6.47;;;5.10;;
11078;SDS011;5592;49.234;7.268;2023-12-14T12:18:17;5.03;;;3.70;;
11078;SDS011;5592;49.234;7.268;2023-12-14T12:20:45;8.53;;;4.73;;
11078;SDS011;5592;49.234;7.268;2023-12-14T12:23:11;8.40;;;4.90;;
11078;SDS011;5592;49.234;7.268;2023-12-14T12:25:37;4.83;;;3.83;;
11078;SDS011;5592;49.234;7.268;2023-12-14T12:28:02;6.13;;;4.00;;
11078;SDS011;5592;49.234;7.268;2023-12-14T12:30:31;7.60;;;4.40;;
11078;SDS011;5592;49.234;7.268;2023-12-14T12:32:56;7.20;;;4.70;;
11078;SDS011;5592;49.234;7.268;2023-12-14T12:35:23;6.90;;;4.40;;
11078;SDS011;5592;49.234;7.268;2023-12-14T12:37:50;5.20;;;3.80;;
11078;SDS011;5592;49.234;7.268;2023-12-14T12:40:22;7.50;;;4.60;;
11078;SDS011;5592;49.234;7.268;2023-12-14T12:42:50;6.80;;;3.53;;
11078;SDS011;5592;49.234;7.268;2023-12-14T12:45:19;5.93;;;4.10;;
11078;SDS011;5592;49.234;7.268;2023-12-14T12:47:52;5.33;;;3.90;;
11078;SDS011;5592;49.234;7.268;2023-12-14T12:50:18;5.43;;;3.47;;
11078;SDS011;5592;49.234;7.268;2023-12-14T12:52:45;7.20;;;3.60;;
11078;SDS011;5592;49.234;7.268;2023-12-14T12:55:14;4.87;;;3.73;;
11078;SDS011;5592;49.234;7.268;2023-12-14T12:57:40;3.77;;;2.83;;
11078;SDS011;5592;49.234;7.268;2023-12-14T13:00:07;4.70;;;3.40;;
11078;SDS011;5592;49.234;7.268;2023-12-14T13:02:37;6.00;;;3.80;;
11078;SDS011;5592;49.234;7.268;2023-12-14T13:05:05;5.10;;;3.33;;
11078;SDS011;5592;49.234;7.268;2023-12-14T13:07:34;3.27;;;2.63;;
11078;SDS011;5592;49.234;7.268;2023-12-14T13:10:02;4.00;;;2.80;;
11078;SDS011;5592;49.234;7.268;2023-12-14T13:12:32;3.93;;;3.17;;
11078;SDS011;5592;49.234;7.268;2023-12-14T13:15:11;3.97;;;2.70;;
11078;SDS011;5592;49.234;7.268;2023-12-14T13:17:37;4.80;;;3.50;;
11078;SDS011;5592;49.234;7.268;2023-12-14T13:20:03;7.03;;;3.43;;
11078;SDS011;5592;49.234;7.268;2023-12-14T13:22:31;6.50;;;2.93;;
11078;SDS011;5592;49.234;7.268;2023-12-14T13:24:56;2.93;;;2.60;;
11078;SDS011;5592;49.234;7.268;2023-12-14T13:27:22;3.70;;;2.20;;
11078;SDS011;5592;49.234;7.268;2023-12-14T13:29:49;4.83;;;2.27;;
11078;SDS011;5592;49.234;7.268;2023-12-14T13:32:14;3.97;;;2.87;;
11078;SDS011;5592;49.234;7.268;2023-12-14T13:34:40;3.57;;;2.47;;
11078;SDS011;5592;49.234;7.268;2023-12-14T13:37:08;2.83;;;2.23;;
11078;SDS011;5592;49.234;7.268;2023-12-14T13:39:34;3.87;;;2.20;;
11078;SDS011;5592;49.234;7.268;2023-12-14T13:42:04;4.43;;;2.40;;
11078;SDS011;5592;49.234;7.268;2023-12-14T13:44:30;4.10;;;2.60;;
11078;SDS011;5592;49.234;7.268;2023-12-14T13:46:56;6.37;;;3.50;;
11078;SDS011;5592;49.234;7.268;2023-12-14T13:49:22;5.60;;;2.67;;
11078;SDS011;5592;49.234;7.268;2023-12-14T13:51:48;2.17;;;1.97;;
11078;SDS011;5592;49.234;7.268;2023-12-14T13:54:13;2.17;;;1.70;;
11078;SDS011;5592;49.234;7.268;2023-12-14T13:56:39;2.90;;;1.90;;
11078;SDS011;5592;49.234;7.268;2023-12-14T13:59:05;3.20;;;1.70;;
11078;SDS011;5592;49.234;7.268;2023-12-14T14:01:30;2.33;;;1.70;;
11078;SDS011;5592;49.234;7.268;2023-12-14T14:03:56;3.30;;;2.27;;
11078;SDS011;5592;49.234;7.268;2023-12-14T14:06:22;2.53;;;2.00;;
11078;SDS011;5592;49.234;7.268;2023-12-14T14:08:48;2.90;;;2.00;;
11078;SDS011;5592;49.234;7.268;2023-12-14T14:11:14;4.90;;;2.10;;
11078;SDS011;5592;49.234;7.268;2023-12-14T14:13:39;2.80;;;2.10;;
11078;SDS011;5592;49.234;7.268;2023-12-14T14:16:06;2.30;;;1.73;;
11078;SDS011;5592;49.234;7.268;2023-12-14T14:18:32;2.07;;;1.73;;
11078;SDS011;5592;49.234;7.268;2023-12-14T14:20:58;3.20;;;2.20;;
11078;SDS011;5592;49.234;7.268;2023-12-14T14:23:24;2.50;;;1.70;;
11078;SDS011;5592;49.234;7.268;2023-12-14T14:25:52;2.93;;;2.23;;
11078;SDS011;5592;49.234;7.268;2023-12-14T14:28:21;3.50;;;2.47;;
11078;SDS011;5592;49.234;7.268;2023-12-14T14:30:47;5.50;;;2.93;;
11078;SDS011;5592;49.234;7.268;2023-12-14T14:33:14;4.80;;;2.37;;
11078;SDS011;5592;49.234;7.268;2023-12-14T14:35:43;5.00;;;2.97;;
11078;SDS011;5592;49.234;7.268;2023-12-14T14:38:10;2.73;;;2.23;;
11078;SDS011;5592;49.234;7.268;2023-12-14T14:40:36;4.77;;;2.30;;
11078;SDS011;5592;49.234;7.268;2023-12-14T14:43:02;2.47;;;1.77;;
11078;SDS011;5592;49.234;7.268;2023-12-14T14:45:27;4.00;;;2.63;;
11078;SDS011;5592;49.234;7.268;2023-12-14T14:47:53;4.10;;;2.63;;
11078;SDS011;5592;49.234;7.268;2023-12-14T14:50:18;4.23;;;2.47;;
11078;SDS011;5592;49.234;7.268;2023-12-14T14:52:44;4.43;;;2.90;;
11078;SDS011;5592;49.234;7.268;2023-12-14T14:55:11;4.97;;;2.43;;
11078;SDS011;5592;49.234;7.268;2023-12-14T14:57:36;3.70;;;2.80;;
11078;SDS011;5592;49.234;7.268;2023-12-14T15:00:03;3.67;;;2.80;;
11078;SDS011;5592;49.234;7.268;2023-12-14T15:02:29;5.40;;;2.43;;
11078;SDS011;5592;49.234;7.268;2023-12-14T15:04:54;5.27;;;2.63;;
11078;SDS011;5592;49.234;7.268;2023-12-14T15:07:20;3.60;;;2.27;;
11078;SDS011;5592;49.234;7.268;2023-12-14T15:09:45;3.37;;;2.50;;